MUC | München Airways

 METAR UND TAF INFORMATION

METAR FOR GMMN
ADDS - METARS form results

(0546 UTC 24 May 2019)
Data provider http://aviationweather.gov/metar/data/
 
METAR text: GMMN 240530Z 35009KT 7000 BKN003 17/17 Q1016 NOSIG
Conditions at: GMMN (NOUASSEUR/CASABL, MA) observed 0530 UTC 24 May 2019
Temperature: 17.0°C (63°F)
Dewpoint: 17.0°C (63°F) [RH = 100%]
Pressure (altimeter): 30.00 inches Hg (1016.0 mb)
Winds: from the N (350 degrees) at 10 MPH (9 knots; 4.6 m/s)
Visibility: 4 miles ( 7 km)
Ceiling: 300 feet AGL
Clouds: broken clouds at 300 feet AGL
Weather: no significant weather observed at this time

METAR text: GMMN 240500Z 36005KT 3000 BR BKN003 16/16 Q1016 NOSIG
Conditions at: GMMN (NOUASSEUR/CASABL, MA) observed 0500 UTC 24 May 2019
Temperature: 16.0°C (61°F)
Dewpoint: 16.0°C (61°F) [RH = 100%]
Pressure (altimeter): 30.00 inches Hg (1016.0 mb)
Winds: from the N (360 degrees) at 6 MPH (5 knots; 2.6 m/s)
Visibility: 1.86 miles (2.99 km)
Ceiling: 300 feet AGL
Clouds: broken clouds at 300 feet AGL
Weather: BR  (mist)

Forecast for: GMMN (NOUASSEUR/CASABL, MA)
Text: TAF GMMN 240500Z 2406/2512 04006KT 6000 SCT010
Forecast period: 0600 to 1000 UTC 24 May 2019
Forecast type: FROM: standard forecast or significant change
Winds: from the NE (40 degrees) at 7 MPH (6 knots; 3.1 m/s)
Visibility: 4 miles (6 km)
Ceiling: at least 12,000 feet AGL
Clouds: scattered clouds at 1000 feet AGL
Weather: no significant weather forecast for this period
Text: TEMPO 2406/2409 2000 BR BKN008
Forecast period: 0600 to 0900 UTC 24 May 2019
Forecast type: TEMPORARY: The following changes expected for less than half the time period
Visibility: 1.24 miles (2.00 km)
Ceiling: 800 feet AGL
Clouds: broken clouds at 800 feet AGL
Weather: BR  (mist)
Text: BECMG 2410/2412 32012KT CAVOK
Forecast period: 1000 UTC 24 May 2019 to 1200 UTC 25 May 2019
Forecast type: BECOMING: Conditions expected to become as follows by 1200 UTC 24 May 2019
Winds: from the NW (320 degrees) at 14 MPH (12 knots; 6.2 m/s)
Visibility: 6 or more miles 10+ km)
Ceiling: unknown
Clouds: missing
Weather: NSW  (no significant weather)

 FLUGHAFENKARTE

 RUNWAY INFORMATION
Runway 17R Runway length 12205 ft Runway width 148 ft
Runway elevation 636 ft Runway displaced threshold 0 ft Runway heading 164
Runway 35L Runway length 12205 ft Runway width 148 ft
Runway elevation 656 ft Runway displaced threshold 0 ft Runway heading 344
Runway 17L Runway length 12205 ft Runway width 148 ft
Runway elevation 633 ft Runway displaced threshold 0 ft Runway heading 164
Runway 35R Runway length 12205 ft Runway width 148 ft
Runway elevation 656 ft Runway displaced threshold 0 ft Runway heading 344

 AIRPORT FREQUENCIES
Type APP Name APP Frequency 121.3 MHZ
Type ATIS Name ATIS Frequency 126.4 MHZ
Type TWR Name TWR Frequency 118.5 MHZ

 AIRPORT NEAR NAVIGATION AIDS
Type VOR-DME Name Casablanca Frequency 114000 KHZ